Time;durP1;ratioP1;P1;durP2;ratioP2;P2;SDS_P1;SDS_P2;PMS_P1;PMS_P2;Temp;Humidity;BMP_temperature;BMP_pressure;BME280_temperature;BME280_humidity;BME280_pressure;Samples;Min_cycle;Max_cycle;Signal;HPM_P1;HPM_P2
2021/06/01 00:03:01;;;;;;;9.60;5.10;;;;;;;;;;6194354;23;20172;-87
2021/06/01 00:06:06;;;;;;;14.20;6.00;;;;;;;;;;6194290;23;20232;-87
2021/06/01 00:09:11;;;;;;;9.00;5.60;;;;;;;;;;6177519;23;20231;-88
2021/06/01 00:12:18;;;;;;;11.27;5.20;;;;;;;;;;6194387;23;20200;-88
2021/06/01 00:15:23;;;;;;;8.97;5.40;;;;;;;;;;6195498;23;20159;-87
2021/06/01 00:18:28;;;;;;;8.00;5.20;;;;;;;;;;6198135;23;20616;-87
2021/06/01 00:21:32;;;;;;;15.13;5.80;;;;;;;;;;6195046;23;20164;-88
2021/06/01 00:24:37;;;;;;;11.50;5.47;;;;;;;;;;6176899;23;20167;-88
2021/06/01 00:27:43;;;;;;;17.07;6.03;;;;;;;;;;6195489;23;20199;-88
2021/06/01 00:30:48;;;;;;;10.87;5.37;;;;;;;;;;6176800;23;20599;-87
2021/06/01 00:33:52;;;;;;;10.47;5.40;;;;;;;;;;6192733;23;20188;-89
2021/06/01 00:36:57;;;;;;;13.37;5.40;;;;;;;;;;6177750;23;20180;-89
2021/06/01 00:40:01;;;;;;;11.67;6.00;;;;;;;;;;6194916;23;20171;-89
2021/06/01 00:43:06;;;;;;;11.63;5.93;;;;;;;;;;6195046;23;20524;-89
2021/06/01 00:46:11;;;;;;;11.13;5.53;;;;;;;;;;6194857;23;20583;-88
2021/06/01 00:49:16;;;;;;;10.90;5.10;;;;;;;;;;6194599;23;20251;-91
2021/06/01 00:52:20;;;;;;;12.63;5.47;;;;;;;;;;6192441;23;20219;-88
2021/06/01 00:55:25;;;;;;;9.80;5.50;;;;;;;;;;6194267;23;20180;-87
2021/06/01 00:58:30;;;;;;;9.87;5.60;;;;;;;;;;6193349;23;20567;-88
2021/06/01 01:01:35;;;;;;;10.83;5.80;;;;;;;;;;6200873;23;20180;-88
2021/06/01 01:04:40;;;;;;;10.80;6.40;;;;;;;;;;6193132;23;20183;-87
2021/06/01 01:07:57;;;;;;;9.73;5.70;;;;;;;;;;6196382;23;20188;-86
2021/06/01 01:11:03;;;;;;;9.43;5.87;;;;;;;;;;6197015;23;20215;-91
2021/06/01 01:14:09;;;;;;;12.97;6.47;;;;;;;;;;6196910;23;20167;-87
2021/06/01 01:17:17;;;;;;;9.73;5.80;;;;;;;;;;6196324;23;20232;-88
2021/06/01 01:20:30;;;;;;;13.03;5.73;;;;;;;;;;6196553;23;20168;-90
2021/06/01 01:23:35;;;;;;;14.27;5.77;;;;;;;;;;6193962;23;20164;-89
2021/06/01 01:26:49;;;;;;;10.73;5.63;;;;;;;;;;6193456;23;20218;-89
2021/06/01 01:29:56;;;;;;;11.33;5.80;;;;;;;;;;6192927;23;20180;-90
2021/06/01 01:33:17;;;;;;;9.63;5.73;;;;;;;;;;6194380;23;20168;-89
2021/06/01 01:36:21;;;;;;;9.60;5.57;;;;;;;;;;6194106;23;20219;-90
2021/06/01 01:39:26;;;;;;;11.80;5.40;;;;;;;;;;6193589;23;20172;-89
2021/06/01 01:42:39;;;;;;;11.20;5.17;;;;;;;;;;6194606;23;20176;-89
2021/06/01 01:45:48;;;;;;;8.63;5.20;;;;;;;;;;6193438;23;20302;-88
2021/06/01 01:48:59;;;;;;;11.23;5.37;;;;;;;;;;6193802;23;20172;-90
2021/06/01 01:52:04;;;;;;;10.20;5.20;;;;;;;;;;6193097;23;20188;-90
2021/06/01 01:55:09;;;;;;;11.77;5.50;;;;;;;;;;6193924;23;20651;-91
2021/06/01 01:58:16;;;;;;;10.60;5.63;;;;;;;;;;6195241;23;20171;-90
2021/06/01 02:01:21;;;;;;;11.93;5.40;;;;;;;;;;6194409;23;20191;-88
2021/06/01 02:04:28;;;;;;;10.40;5.53;;;;;;;;;;6193545;23;20510;-86
2021/06/01 02:07:33;;;;;;;9.80;5.33;;;;;;;;;;6192542;23;20624;-90
2021/06/01 02:10:37;;;;;;;7.57;5.03;;;;;;;;;;6194072;23;20216;-87
2021/06/01 02:13:44;;;;;;;10.43;5.73;;;;;;;;;;6193712;23;20302;-87
2021/06/01 02:16:49;;;;;;;13.90;5.67;;;;;;;;;;6194597;23;20662;-85
2021/06/01 02:19:54;;;;;;;13.40;6.07;;;;;;;;;;6194303;23;20195;-89
2021/06/01 02:26:31;;;;;;;11.60;5.90;;;;;;;;;;6211474;23;20250;-89
2021/06/01 02:29:38;;;;;;;9.53;5.37;;;;;;;;;;6192800;23;20171;-89
2021/06/01 02:32:45;;;;;;;8.63;6.10;;;;;;;;;;6191806;23;20549;-89
2021/06/01 02:35:51;;;;;;;11.23;5.63;;;;;;;;;;6193072;23;20237;-90
2021/06/01 02:38:57;;;;;;;11.43;5.57;;;;;;;;;;6192599;23;20187;-89
2021/06/01 02:42:02;;;;;;;11.00;5.23;;;;;;;;;;6194185;23;20190;-87
2021/06/01 02:45:09;;;;;;;9.57;5.80;;;;;;;;;;6194214;23;20196;-89
2021/06/01 02:48:14;;;;;;;11.67;5.30;;;;;;;;;;6194364;23;20195;-89
2021/06/01 02:51:20;;;;;;;12.17;6.03;;;;;;;;;;6194067;23;20544;-91
2021/06/01 02:54:25;;;;;;;12.53;5.43;;;;;;;;;;6193699;23;20172;-89
2021/06/01 02:57:30;;;;;;;11.37;5.73;;;;;;;;;;6193539;23;20179;-89
2021/06/01 03:00:35;;;;;;;9.67;5.43;;;;;;;;;;6193754;23;20219;-89
2021/06/01 03:03:44;;;;;;;11.40;5.87;;;;;;;;;;6175252;23;20203;-89
2021/06/01 03:06:50;;;;;;;9.83;6.17;;;;;;;;;;6194130;23;20203;-89
2021/06/01 03:09:55;;;;;;;11.80;5.80;;;;;;;;;;6193602;23;20176;-90
2021/06/01 03:13:01;;;;;;;8.37;5.37;;;;;;;;;;6191839;23;20678;-89
2021/06/01 03:16:06;;;;;;;14.17;5.70;;;;;;;;;;6193739;23;20163;-88
2021/06/01 03:19:10;;;;;;;14.63;5.97;;;;;;;;;;6191450;23;20176;-87
2021/06/01 03:22:16;;;;;;;9.23;5.70;;;;;;;;;;6192105;23;20212;-89
2021/06/01 03:25:21;;;;;;;10.80;6.13;;;;;;;;;;6192326;23;20216;-89
2021/06/01 03:28:26;;;;;;;15.90;6.57;;;;;;;;;;6192115;23;20556;-88
2021/06/01 03:31:32;;;;;;;9.77;6.00;;;;;;;;;;6192282;23;20167;-89
2021/06/01 03:34:36;;;;;;;12.03;6.27;;;;;;;;;;6192511;23;20215;-90
2021/06/01 03:37:42;;;;;;;10.33;6.00;;;;;;;;;;6193260;23;20227;-89
2021/06/01 03:40:46;;;;;;;12.03;5.93;;;;;;;;;;6193300;23;20184;-89
2021/06/01 03:43:51;;;;;;;9.57;5.57;;;;;;;;;;6195521;23;20204;-90
2021/06/01 03:46:56;;;;;;;11.63;6.20;;;;;;;;;;6193830;23;20232;-89
2021/06/01 03:50:00;;;;;;;12.37;5.67;;;;;;;;;;6195942;23;20229;-89
2021/06/01 03:53:06;;;;;;;10.87;5.70;;;;;;;;;;6194187;23;20167;-90
2021/06/01 03:56:10;;;;;;;10.33;6.20;;;;;;;;;;6195575;23;20203;-90
2021/06/01 03:59:15;;;;;;;10.57;5.93;;;;;;;;;;6195365;23;20241;-90
2021/06/01 04:02:19;;;;;;;11.53;5.43;;;;;;;;;;6207968;23;20199;-88
2021/06/01 04:05:24;;;;;;;9.83;5.30;;;;;;;;;;6195124;23;20176;-88
2021/06/01 04:08:30;;;;;;;11.70;5.60;;;;;;;;;;6196105;23;20168;-90
2021/06/01 04:11:35;;;;;;;12.57;5.60;;;;;;;;;;6196429;23;20217;-90
2021/06/01 04:15:17;;;;;;;9.90;5.80;;;;;;;;;;6194417;23;20666;-89
2021/06/01 04:18:22;;;;;;;10.90;5.63;;;;;;;;;;6194970;23;20167;-88
2021/06/01 04:21:26;;;;;;;9.93;5.50;;;;;;;;;;6196938;23;20233;-90
2021/06/01 04:24:32;;;;;;;9.17;5.30;;;;;;;;;;6195980;23;20231;-89
2021/06/01 04:27:37;;;;;;;10.13;5.90;;;;;;;;;;6196034;23;20175;-89
2021/06/01 04:30:44;;;;;;;12.43;6.03;;;;;;;;;;6195576;23;20175;-87
2021/06/01 04:33:49;;;;;;;10.17;5.97;;;;;;;;;;6195975;23;20171;-89
2021/06/01 04:36:54;;;;;;;11.70;6.13;;;;;;;;;;6196168;23;20654;-89
2021/06/01 04:40:00;;;;;;;12.43;5.93;;;;;;;;;;6195564;23;20183;-90
2021/06/01 04:43:04;;;;;;;12.27;6.03;;;;;;;;;;6193452;23;20220;-89
2021/06/01 04:46:09;;;;;;;8.73;5.60;;;;;;;;;;6196830;23;20171;-89
2021/06/01 04:49:13;;;;;;;11.77;5.40;;;;;;;;;;6196512;23;20218;-87
2021/06/01 04:52:18;;;;;;;11.53;5.67;;;;;;;;;;6196133;23;20172;-89
2021/06/01 04:55:24;;;;;;;10.13;5.20;;;;;;;;;;6195992;23;20233;-90
2021/06/01 04:58:29;;;;;;;8.30;5.07;;;;;;;;;;6195967;23;20264;-88
2021/06/01 05:01:33;;;;;;;17.30;6.10;;;;;;;;;;6195544;23;20243;-89
2021/06/01 05:04:38;;;;;;;8.83;5.53;;;;;;;;;;6197484;23;20678;-89
2021/06/01 05:07:42;;;;;;;12.57;6.10;;;;;;;;;;6196239;23;20210;-88
2021/06/01 05:10:48;;;;;;;13.27;5.90;;;;;;;;;;6197904;23;20284;-88
2021/06/01 05:13:53;;;;;;;11.97;5.60;;;;;;;;;;6195857;23;20168;-91
2021/06/01 05:16:58;;;;;;;11.93;5.70;;;;;;;;;;6197000;23;20223;-88
2021/06/01 05:20:02;;;;;;;11.30;5.77;;;;;;;;;;6194564;23;20172;-87
2021/06/01 05:23:06;;;;;;;8.73;5.07;;;;;;;;;;6197986;23;20223;-88
2021/06/01 05:26:13;;;;;;;9.60;5.57;;;;;;;;;;6198107;23;20239;-89
2021/06/01 05:29:17;;;;;;;11.07;5.30;;;;;;;;;;6198691;23;20179;-89
2021/06/01 05:35:52;;;;;;;9.20;5.07;;;;;;;;;;6197633;23;20262;-88
2021/06/01 05:38:56;;;;;;;10.20;5.00;;;;;;;;;;6217552;22;20172;-89
2021/06/01 05:42:02;;;;;;;10.50;5.70;;;;;;;;;;6200080;23;20179;-88
2021/06/01 05:45:08;;;;;;;8.87;5.20;;;;;;;;;;6199808;23;20179;-88
2021/06/01 05:48:13;;;;;;;20.23;6.23;;;;;;;;;;6198200;23;20155;-90
2021/06/01 05:51:20;;;;;;;8.50;4.63;;;;;;;;;;6196558;23;20627;-88
2021/06/01 05:54:25;;;;;;;10.17;4.40;;;;;;;;;;6197571;23;20171;-88
2021/06/01 05:57:31;;;;;;;11.37;4.77;;;;;;;;;;6197603;23;20168;-89
2021/06/01 06:00:36;;;;;;;11.20;5.00;;;;;;;;;;6196958;23;20198;-89
2021/06/01 06:03:41;;;;;;;9.70;5.07;;;;;;;;;;6196396;23;20216;-88
2021/06/01 06:06:46;;;;;;;8.67;4.73;;;;;;;;;;6197703;23;20223;-89
2021/06/01 06:09:50;;;;;;;7.88;4.60;;;;;;;;;;6196221;23;20191;-90
2021/06/01 06:12:56;;;;;;;11.05;5.10;;;;;;;;;;6196268;23;20172;-91
2021/06/01 06:16:01;;;;;;;12.07;4.57;;;;;;;;;;6197209;23;20238;-91
2021/06/01 06:19:05;;;;;;;12.55;4.60;;;;;;;;;;6196570;23;20253;-90
2021/06/01 06:22:09;;;;;;;8.43;4.43;;;;;;;;;;6195646;23;20203;-90
2021/06/01 06:25:15;;;;;;;7.75;4.43;;;;;;;;;;6194268;23;20571;-90
2021/06/01 06:28:21;;;;;;;6.68;4.15;;;;;;;;;;6178159;23;20179;-88
2021/06/01 06:31:26;;;;;;;7.82;4.10;;;;;;;;;;6179437;23;20159;-90
2021/06/01 06:34:31;;;;;;;8.20;4.32;;;;;;;;;;6196434;23;20225;-90
2021/06/01 06:37:36;;;;;;;11.38;4.20;;;;;;;;;;6178462;23;20203;-88
2021/06/01 06:40:40;;;;;;;9.25;4.32;;;;;;;;;;6179447;23;20180;-91
2021/06/01 06:43:49;;;;;;;6.97;3.72;;;;;;;;;;6179931;23;20263;-89
2021/06/01 06:47:06;;;;;;;9.73;4.10;;;;;;;;;;6196612;23;20231;-89
2021/06/01 06:50:13;;;;;;;6.90;3.78;;;;;;;;;;6195340;23;20171;-91
2021/06/01 06:53:18;;;;;;;5.75;3.60;;;;;;;;;;6195493;23;20184;-91
2021/06/01 06:56:23;;;;;;;10.98;4.10;;;;;;;;;;6196424;23;20674;-91
2021/06/01 06:59:30;;;;;;;8.80;4.25;;;;;;;;;;6199798;23;20224;-90
2021/06/01 07:02:36;;;;;;;6.85;3.47;;;;;;;;;;6197107;23;20188;-93
2021/06/01 07:05:40;;;;;;;7.10;3.25;;;;;;;;;;6196477;23;20180;-92
2021/06/01 07:08:45;;;;;;;7.57;3.33;;;;;;;;;;6198745;23;20259;-91
2021/06/01 07:11:50;;;;;;;6.60;3.40;;;;;;;;;;6179358;23;20610;-92
2021/06/01 07:15:03;;;;;;;8.10;3.22;;;;;;;;;;6197403;23;20226;-91
2021/06/01 19:50:52;;;;;;;9.60;2.63;;;;;;;;;;6197198;23;20220;-91
2021/06/01 19:53:56;;;;;;;11.38;3.70;;;;;;;;;;6182451;23;20302;-88
2021/06/01 19:57:01;;;;;;;8.15;3.92;;;;;;;;;;6197211;23;20171;-90
2021/06/01 20:00:07;;;;;;;7.35;3.33;;;;;;;;;;6197936;23;20175;-89
2021/06/01 20:03:20;;;;;;;5.90;3.42;;;;;;;;;;6198210;23;20192;-89
2021/06/01 20:06:24;;;;;;;6.95;2.70;;;;;;;;;;6179495;23;20200;-86
2021/06/01 20:09:29;;;;;;;8.70;3.00;;;;;;;;;;6196566;23;20251;-90
2021/06/01 20:12:34;;;;;;;7.05;2.60;;;;;;;;;;6196238;23;20175;-89
2021/06/01 20:15:39;;;;;;;5.35;2.70;;;;;;;;;;6196133;23;20176;-90
2021/06/01 20:18:45;;;;;;;8.43;3.40;;;;;;;;;;6180976;23;20196;-90
2021/06/01 20:21:54;;;;;;;14.60;4.78;;;;;;;;;;6181679;23;20167;-90
2021/06/01 20:25:00;;;;;;;11.13;3.92;;;;;;;;;;6198797;23;20176;-90
2021/06/01 20:28:07;;;;;;;7.47;3.35;;;;;;;;;;6200932;23;20171;-90
2021/06/01 20:31:17;;;;;;;7.75;2.85;;;;;;;;;;6202615;23;20172;-92
2021/06/01 20:34:24;;;;;;;6.13;2.75;;;;;;;;;;6183493;23;20235;-90
2021/06/01 20:37:29;;;;;;;8.20;3.20;;;;;;;;;;6182135;23;20180;-90
2021/06/01 20:40:34;;;;;;;9.05;3.67;;;;;;;;;;6199493;23;20595;-91
2021/06/01 20:43:40;;;;;;;7.63;3.60;;;;;;;;;;6198470;23;20172;-90
2021/06/01 20:46:46;;;;;;;9.52;4.03;;;;;;;;;;6186154;23;20254;-91
2021/06/01 20:49:53;;;;;;;7.85;3.65;;;;;;;;;;6199214;23;20192;-90
2021/06/01 20:52:58;;;;;;;8.68;4.25;;;;;;;;;;6198781;23;20183;-89
2021/06/01 20:56:03;;;;;;;7.60;3.75;;;;;;;;;;6198645;23;20276;-91
2021/06/01 20:59:09;;;;;;;9.73;4.40;;;;;;;;;;6198081;23;20175;-91
2021/06/01 21:02:14;;;;;;;11.45;4.20;;;;;;;;;;6198477;23;20678;-90
2021/06/01 21:05:20;;;;;;;9.98;4.22;;;;;;;;;;6199407;23;20188;-90
2021/06/01 21:08:24;;;;;;;8.48;4.43;;;;;;;;;;6199726;23;20650;-91
2021/06/01 21:11:29;;;;;;;10.43;4.18;;;;;;;;;;6216610;23;20200;-90
2021/06/01 21:14:34;;;;;;;12.45;5.10;;;;;;;;;;6199119;23;20599;-89
2021/06/01 21:17:39;;;;;;;9.80;4.90;;;;;;;;;;6198962;23;20171;-91
2021/06/01 21:20:46;;;;;;;14.77;4.75;;;;;;;;;;6199406;23;20171;-91
2021/06/01 21:23:51;;;;;;;9.10;4.18;;;;;;;;;;6198201;23;20183;-90
2021/06/01 21:26:55;;;;;;;6.78;4.25;;;;;;;;;;6197322;23;20259;-90
2021/06/01 21:30:00;;;;;;;10.55;4.93;;;;;;;;;;6197429;23;20192;-90
2021/06/01 21:33:05;;;;;;;8.20;4.30;;;;;;;;;;6197901;23;20164;-90
2021/06/01 21:36:14;;;;;;;9.27;4.50;;;;;;;;;;6197829;23;20462;-91
2021/06/01 21:39:23;;;;;;;9.35;4.43;;;;;;;;;;6196899;23;20189;-92
2021/06/01 21:42:29;;;;;;;8.85;4.68;;;;;;;;;;6194687;23;20608;-90
2021/06/01 21:45:35;;;;;;;7.60;4.63;;;;;;;;;;6194768;23;20187;-90
2021/06/01 21:48:40;;;;;;;10.05;4.78;;;;;;;;;;6196844;23;20294;-89
2021/06/01 21:51:51;;;;;;;9.48;4.35;;;;;;;;;;6195665;23;20199;-90
2021/06/01 21:54:56;;;;;;;7.68;4.43;;;;;;;;;;6195258;23;20183;-89
2021/06/01 21:58:00;;;;;;;13.13;4.50;;;;;;;;;;6195006;23;20240;-90
2021/06/01 22:01:48;;;;;;;8.02;4.30;;;;;;;;;;6176813;23;20510;-90
2021/06/01 22:04:53;;;;;;;7.82;4.25;;;;;;;;;;6177731;23;20221;-91
2021/06/01 22:07:58;;;;;;;10.10;4.90;;;;;;;;;;6193201;23;20208;-90
2021/06/01 22:11:04;;;;;;;9.52;4.55;;;;;;;;;;6194344;23;20215;-91
2021/06/01 22:14:08;;;;;;;12.18;4.80;;;;;;;;;;6193396;23;20196;-91
2021/06/01 22:17:16;;;;;;;12.55;5.28;;;;;;;;;;6193869;23;20174;-90
2021/06/01 22:20:21;;;;;;;8.57;4.90;;;;;;;;;;6175373;23;20268;-90
2021/06/01 22:23:28;;;;;;;11.57;6.45;;;;;;;;;;6192073;23;21114;-89
2021/06/01 22:26:34;;;;;;;14.98;6.03;;;;;;;;;;6192934;23;20259;-91
2021/06/01 22:29:39;;;;;;;11.20;5.90;;;;;;;;;;6194533;23;20718;-90
2021/06/01 22:32:45;;;;;;;10.70;5.80;;;;;;;;;;6192983;23;20250;-89
2021/06/01 22:35:49;;;;;;;12.65;4.82;;;;;;;;;;6192872;23;20175;-90
2021/06/01 22:38:56;;;;;;;10.02;4.53;;;;;;;;;;6192717;23;20172;-91
2021/06/01 22:42:00;;;;;;;9.25;4.20;;;;;;;;;;6192902;23;20183;-90
2021/06/01 22:45:06;;;;;;;8.82;4.25;;;;;;;;;;6192672;23;20214;-90
2021/06/01 22:48:11;;;;;;;10.77;4.85;;;;;;;;;;6173480;23;20741;-89
2021/06/01 22:51:16;;;;;;;12.05;4.40;;;;;;;;;;6192084;23;20216;-90
2021/06/01 22:54:22;;;;;;;7.53;4.55;;;;;;;;;;6190987;23;20287;-89
2021/06/01 22:57:27;;;;;;;9.05;4.68;;;;;;;;;;6191625;23;20168;-88
2021/06/01 23:00:34;;;;;;;11.07;4.28;;;;;;;;;;6203492;23;20171;-89
2021/06/01 23:03:41;;;;;;;12.43;4.32;;;;;;;;;;6182638;23;20179;-91
2021/06/01 23:06:46;;;;;;;8.45;4.13;;;;;;;;;;6193194;23;20274;-92
2021/06/01 23:09:52;;;;;;;6.53;3.85;;;;;;;;;;6192746;23;20172;-90
2021/06/01 23:13:01;;;;;;;8.55;4.35;;;;;;;;;;6192359;23;20212;-92
2021/06/01 23:16:07;;;;;;;7.18;4.45;;;;;;;;;;6193458;23;20175;-90
2021/06/01 23:19:12;;;;;;;9.00;4.28;;;;;;;;;;6192718;23;20171;-94
2021/06/01 23:22:19;;;;;;;10.13;4.47;;;;;;;;;;6192695;23;20206;-91
2021/06/01 23:25:25;;;;;;;11.27;4.10;;;;;;;;;;6174948;23;20176;-92
2021/06/01 23:28:30;;;;;;;8.10;4.03;;;;;;;;;;6192999;23;20172;-92
2021/06/01 23:31:34;;;;;;;7.72;3.35;;;;;;;;;;6190799;23;20167;-91
2021/06/01 23:34:39;;;;;;;10.40;4.35;;;;;;;;;;6176341;23;20239;-91
2021/06/01 23:37:46;;;;;;;6.50;3.97;;;;;;;;;;6193410;23;20224;-92
2021/06/01 23:40:55;;;;;;;11.43;4.35;;;;;;;;;;6193050;23;20196;-92
2021/06/01 23:43:59;;;;;;;11.18;3.75;;;;;;;;;;6192679;23;20219;-92
2021/06/01 23:47:06;;;;;;;11.18;3.90;;;;;;;;;;6142688;23;1151180;-89
2021/06/01 23:50:11;;;;;;;9.70;4.70;;;;;;;;;;6193920;23;20220;-88
2021/06/01 23:53:16;;;;;;;10.75;4.00;;;;;;;;;;6192883;23;20245;-92
2021/06/01 23:56:22;;;;;;;9.80;4.22;;;;;;;;;;6197302;23;20171;-91
2021/06/01 23:59:26;;;;;;;5.10;3.72;;;;;;;;;;6192182;23;20211;-91
